sensor_id;sensor_type;location;lat;lon;timestamp;P1;durP1;ratioP1;P2;durP2;ratioP2
31754;SDS011;18325;52.018;4.726;2023-03-01T00:00:45;10.33;;;5.40;;
31754;SDS011;18325;52.018;4.726;2023-03-01T00:03:11;10.23;;;4.67;;
31754;SDS011;18325;52.018;4.726;2023-03-01T00:05:43;13.07;;;6.33;;
31754;SDS011;18325;52.018;4.726;2023-03-01T00:08:10;8.63;;;5.00;;
31754;SDS011;18325;52.018;4.726;2023-03-01T00:10:37;10.97;;;5.97;;
31754;SDS011;18325;52.018;4.726;2023-03-01T00:13:04;8.37;;;5.83;;
31754;SDS011;18325;52.018;4.726;2023-03-01T00:15:31;8.77;;;5.57;;
31754;SDS011;18325;52.018;4.726;2023-03-01T00:17:59;9.60;;;5.80;;
31754;SDS011;18325;52.018;4.726;2023-03-01T00:20:26;8.03;;;5.03;;
31754;SDS011;18325;52.018;4.726;2023-03-01T00:22:52;7.83;;;4.97;;
31754;SDS011;18325;52.018;4.726;2023-03-01T00:25:22;8.93;;;5.70;;
31754;SDS011;18325;52.018;4.726;2023-03-01T00:27:51;9.23;;;5.63;;
31754;SDS011;18325;52.018;4.726;2023-03-01T00:30:19;10.63;;;5.73;;
31754;SDS011;18325;52.018;4.726;2023-03-01T00:32:46;8.30;;;5.03;;
31754;SDS011;18325;52.018;4.726;2023-03-01T00:35:12;10.20;;;5.47;;
31754;SDS011;18325;52.018;4.726;2023-03-01T00:37:39;10.13;;;6.07;;
31754;SDS011;18325;52.018;4.726;2023-03-01T00:40:07;13.23;;;5.73;;
31754;SDS011;18325;52.018;4.726;2023-03-01T00:42:35;9.77;;;5.37;;
31754;SDS011;18325;52.018;4.726;2023-03-01T00:45:01;12.80;;;5.80;;
31754;SDS011;18325;52.018;4.726;2023-03-01T00:47:29;9.00;;;5.63;;
31754;SDS011;18325;52.018;4.726;2023-03-01T00:49:56;9.90;;;5.37;;
31754;SDS011;18325;52.018;4.726;2023-03-01T00:52:22;8.40;;;5.17;;
31754;SDS011;18325;52.018;4.726;2023-03-01T00:54:51;12.80;;;6.33;;
31754;SDS011;18325;52.018;4.726;2023-03-01T00:57:18;8.20;;;4.97;;
31754;SDS011;18325;52.018;4.726;2023-03-01T00:59:44;8.63;;;5.50;;
31754;SDS011;18325;52.018;4.726;2023-03-01T01:02:11;7.80;;;5.30;;
31754;SDS011;18325;52.018;4.726;2023-03-01T01:04:39;10.97;;;5.50;;
31754;SDS011;18325;52.018;4.726;2023-03-01T01:07:05;10.30;;;6.13;;
31754;SDS011;18325;52.018;4.726;2023-03-01T01:09:32;9.70;;;5.43;;
31754;SDS011;18325;52.018;4.726;2023-03-01T01:11:58;9.20;;;5.77;;
31754;SDS011;18325;52.018;4.726;2023-03-01T01:14:24;11.23;;;6.97;;
31754;SDS011;18325;52.018;4.726;2023-03-01T01:16:52;10.10;;;6.47;;
31754;SDS011;18325;52.018;4.726;2023-03-01T01:19:18;10.53;;;6.07;;
31754;SDS011;18325;52.018;4.726;2023-03-01T01:21:46;9.63;;;6.30;;
31754;SDS011;18325;52.018;4.726;2023-03-01T01:24:13;9.33;;;6.03;;
31754;SDS011;18325;52.018;4.726;2023-03-01T01:26:40;14.10;;;6.80;;
31754;SDS011;18325;52.018;4.726;2023-03-01T01:29:07;17.27;;;6.70;;
31754;SDS011;18325;52.018;4.726;2023-03-01T01:31:35;11.27;;;6.33;;
31754;SDS011;18325;52.018;4.726;2023-03-01T01:34:04;11.80;;;7.13;;
31754;SDS011;18325;52.018;4.726;2023-03-01T01:36:31;13.50;;;7.13;;
31754;SDS011;18325;52.018;4.726;2023-03-01T01:39:01;9.87;;;6.07;;
31754;SDS011;18325;52.018;4.726;2023-03-01T01:41:29;11.00;;;6.37;;
31754;SDS011;18325;52.018;4.726;2023-03-01T01:44:10;11.63;;;7.07;;
31754;SDS011;18325;52.018;4.726;2023-03-01T01:46:41;11.17;;;6.17;;
31754;SDS011;18325;52.018;4.726;2023-03-01T01:49:12;13.33;;;7.13;;
31754;SDS011;18325;52.018;4.726;2023-03-01T01:51:44;12.23;;;6.50;;
31754;SDS011;18325;52.018;4.726;2023-03-01T01:54:15;12.90;;;7.17;;
31754;SDS011;18325;52.018;4.726;2023-03-01T01:56:44;13.60;;;6.57;;
31754;SDS011;18325;52.018;4.726;2023-03-01T01:59:14;14.13;;;7.47;;
31754;SDS011;18325;52.018;4.726;2023-03-01T02:01:40;10.83;;;6.13;;
31754;SDS011;18325;52.018;4.726;2023-03-01T02:04:07;12.23;;;7.07;;
31754;SDS011;18325;52.018;4.726;2023-03-01T02:06:34;14.17;;;7.03;;
31754;SDS011;18325;52.018;4.726;2023-03-01T02:09:04;13.50;;;7.40;;
31754;SDS011;18325;52.018;4.726;2023-03-01T02:11:34;13.70;;;7.10;;
31754;SDS011;18325;52.018;4.726;2023-03-01T02:14:02;11.63;;;6.90;;
31754;SDS011;18325;52.018;4.726;2023-03-01T02:16:30;10.37;;;6.57;;
31754;SDS011;18325;52.018;4.726;2023-03-01T02:18:57;10.87;;;6.73;;
31754;SDS011;18325;52.018;4.726;2023-03-01T02:21:30;12.27;;;7.13;;
31754;SDS011;18325;52.018;4.726;2023-03-01T02:24:08;13.87;;;7.13;;
31754;SDS011;18325;52.018;4.726;2023-03-01T02:26:42;12.27;;;7.03;;
31754;SDS011;18325;52.018;4.726;2023-03-01T02:29:13;17.87;;;7.17;;
31754;SDS011;18325;52.018;4.726;2023-03-01T02:31:39;11.13;;;6.80;;
31754;SDS011;18325;52.018;4.726;2023-03-01T02:34:08;12.30;;;6.73;;
31754;SDS011;18325;52.018;4.726;2023-03-01T02:36:37;10.40;;;6.80;;
31754;SDS011;18325;52.018;4.726;2023-03-01T02:39:06;12.70;;;6.80;;
31754;SDS011;18325;52.018;4.726;2023-03-01T02:41:39;12.73;;;6.97;;
31754;SDS011;18325;52.018;4.726;2023-03-01T02:44:08;11.43;;;6.70;;
31754;SDS011;18325;52.018;4.726;2023-03-01T02:46:43;16.33;;;7.40;;
31754;SDS011;18325;52.018;4.726;2023-03-01T02:49:21;12.63;;;6.63;;
31754;SDS011;18325;52.018;4.726;2023-03-01T02:52:00;10.73;;;7.03;;
31754;SDS011;18325;52.018;4.726;2023-03-01T02:54:34;13.90;;;5.83;;
31754;SDS011;18325;52.018;4.726;2023-03-01T02:57:04;10.67;;;6.20;;
31754;SDS011;18325;52.018;4.726;2023-03-01T02:59:32;12.80;;;7.20;;
31754;SDS011;18325;52.018;4.726;2023-03-01T03:02:05;12.87;;;7.60;;
31754;SDS011;18325;52.018;4.726;2023-03-01T03:04:32;16.47;;;8.07;;
31754;SDS011;18325;52.018;4.726;2023-03-01T03:06:58;12.93;;;7.10;;
31754;SDS011;18325;52.018;4.726;2023-03-01T03:09:25;13.50;;;6.87;;
31754;SDS011;18325;52.018;4.726;2023-03-01T03:11:56;13.63;;;7.93;;
31754;SDS011;18325;52.018;4.726;2023-03-01T03:14:22;16.53;;;6.03;;
31754;SDS011;18325;52.018;4.726;2023-03-01T03:16:49;12.80;;;7.17;;
31754;SDS011;18325;52.018;4.726;2023-03-01T03:19:18;11.83;;;6.50;;
31754;SDS011;18325;52.018;4.726;2023-03-01T03:21:45;15.83;;;6.70;;
31754;SDS011;18325;52.018;4.726;2023-03-01T03:24:12;12.07;;;6.93;;
31754;SDS011;18325;52.018;4.726;2023-03-01T03:26:38;14.67;;;6.53;;
31754;SDS011;18325;52.018;4.726;2023-03-01T03:29:05;12.07;;;7.03;;
31754;SDS011;18325;52.018;4.726;2023-03-01T03:31:31;10.63;;;6.13;;
31754;SDS011;18325;52.018;4.726;2023-03-01T03:33:57;11.73;;;7.70;;
31754;SDS011;18325;52.018;4.726;2023-03-01T03:36:26;16.30;;;6.30;;
31754;SDS011;18325;52.018;4.726;2023-03-01T03:38:52;10.97;;;6.77;;
31754;SDS011;18325;52.018;4.726;2023-03-01T03:41:19;15.63;;;7.63;;
31754;SDS011;18325;52.018;4.726;2023-03-01T03:43:45;12.90;;;7.30;;
31754;SDS011;18325;52.018;4.726;2023-03-01T03:46:13;11.50;;;6.20;;
31754;SDS011;18325;52.018;4.726;2023-03-01T03:48:41;12.67;;;6.77;;
31754;SDS011;18325;52.018;4.726;2023-03-01T03:51:09;13.53;;;6.87;;
31754;SDS011;18325;52.018;4.726;2023-03-01T03:53:38;10.43;;;6.43;;
31754;SDS011;18325;52.018;4.726;2023-03-01T03:56:05;14.70;;;7.70;;
31754;SDS011;18325;52.018;4.726;2023-03-01T03:58:32;11.03;;;6.80;;
31754;SDS011;18325;52.018;4.726;2023-03-01T04:00:58;16.23;;;8.07;;
31754;SDS011;18325;52.018;4.726;2023-03-01T04:03:26;14.37;;;6.87;;
31754;SDS011;18325;52.018;4.726;2023-03-01T04:05:53;11.83;;;7.50;;
31754;SDS011;18325;52.018;4.726;2023-03-01T04:08:20;13.30;;;7.37;;
31754;SDS011;18325;52.018;4.726;2023-03-01T04:10:50;15.33;;;6.90;;
31754;SDS011;18325;52.018;4.726;2023-03-01T04:13:18;14.70;;;7.60;;
31754;SDS011;18325;52.018;4.726;2023-03-01T04:15:47;11.17;;;6.43;;
31754;SDS011;18325;52.018;4.726;2023-03-01T04:18:15;11.50;;;6.50;;
31754;SDS011;18325;52.018;4.726;2023-03-01T04:20:42;15.27;;;8.37;;
31754;SDS011;18325;52.018;4.726;2023-03-01T04:23:11;15.97;;;8.43;;
31754;SDS011;18325;52.018;4.726;2023-03-01T04:25:41;13.27;;;6.77;;
31754;SDS011;18325;52.018;4.726;2023-03-01T04:28:10;12.07;;;6.80;;
31754;SDS011;18325;52.018;4.726;2023-03-01T04:30:37;12.70;;;7.93;;
31754;SDS011;18325;52.018;4.726;2023-03-01T04:33:05;13.40;;;7.67;;
31754;SDS011;18325;52.018;4.726;2023-03-01T04:35:32;13.37;;;6.60;;
31754;SDS011;18325;52.018;4.726;2023-03-01T04:37:59;13.77;;;6.70;;
31754;SDS011;18325;52.018;4.726;2023-03-01T04:40:26;10.97;;;6.83;;
31754;SDS011;18325;52.018;4.726;2023-03-01T04:42:52;13.63;;;7.80;;
31754;SDS011;18325;52.018;4.726;2023-03-01T04:45:20;16.33;;;8.50;;
31754;SDS011;18325;52.018;4.726;2023-03-01T04:47:47;20.50;;;9.03;;
31754;SDS011;18325;52.018;4.726;2023-03-01T04:50:15;15.67;;;8.00;;
31754;SDS011;18325;52.018;4.726;2023-03-01T04:52:45;12.83;;;8.07;;
31754;SDS011;18325;52.018;4.726;2023-03-01T04:55:12;15.33;;;7.70;;
31754;SDS011;18325;52.018;4.726;2023-03-01T04:57:39;13.80;;;7.67;;
31754;SDS011;18325;52.018;4.726;2023-03-01T05:00:07;13.30;;;7.70;;
31754;SDS011;18325;52.018;4.726;2023-03-01T05:02:46;14.20;;;7.80;;
31754;SDS011;18325;52.018;4.726;2023-03-01T05:05:18;16.27;;;8.47;;
31754;SDS011;18325;52.018;4.726;2023-03-01T05:07:50;11.37;;;7.37;;
31754;SDS011;18325;52.018;4.726;2023-03-01T05:10:22;13.70;;;7.10;;
31754;SDS011;18325;52.018;4.726;2023-03-01T05:12:49;10.83;;;5.93;;
31754;SDS011;18325;52.018;4.726;2023-03-01T05:15:17;12.27;;;7.13;;
31754;SDS011;18325;52.018;4.726;2023-03-01T05:17:43;14.03;;;7.27;;
31754;SDS011;18325;52.018;4.726;2023-03-01T05:20:13;14.50;;;7.60;;
31754;SDS011;18325;52.018;4.726;2023-03-01T05:22:40;12.50;;;6.73;;
31754;SDS011;18325;52.018;4.726;2023-03-01T05:25:07;11.67;;;7.00;;
31754;SDS011;18325;52.018;4.726;2023-03-01T05:27:34;14.23;;;6.67;;
31754;SDS011;18325;52.018;4.726;2023-03-01T05:30:00;14.47;;;7.70;;
31754;SDS011;18325;52.018;4.726;2023-03-01T05:32:38;15.23;;;7.53;;
31754;SDS011;18325;52.018;4.726;2023-03-01T05:35:06;14.10;;;7.03;;
31754;SDS011;18325;52.018;4.726;2023-03-01T05:37:34;13.37;;;7.20;;
31754;SDS011;18325;52.018;4.726;2023-03-01T05:40:03;15.00;;;7.27;;
31754;SDS011;18325;52.018;4.726;2023-03-01T05:42:32;14.73;;;7.33;;
31754;SDS011;18325;52.018;4.726;2023-03-01T05:44:58;12.13;;;6.90;;
31754;SDS011;18325;52.018;4.726;2023-03-01T05:47:25;11.87;;;6.23;;
31754;SDS011;18325;52.018;4.726;2023-03-01T05:49:51;14.10;;;7.17;;
31754;SDS011;18325;52.018;4.726;2023-03-01T05:52:19;11.70;;;6.30;;
31754;SDS011;18325;52.018;4.726;2023-03-01T05:54:47;12.40;;;6.70;;
31754;SDS011;18325;52.018;4.726;2023-03-01T05:57:14;9.87;;;5.70;;
31754;SDS011;18325;52.018;4.726;2023-03-01T05:59:41;12.83;;;6.93;;
31754;SDS011;18325;52.018;4.726;2023-03-01T06:02:07;13.63;;;7.23;;
31754;SDS011;18325;52.018;4.726;2023-03-01T06:04:34;9.37;;;5.93;;
31754;SDS011;18325;52.018;4.726;2023-03-01T06:07:00;12.90;;;7.67;;
31754;SDS011;18325;52.018;4.726;2023-03-01T06:09:27;23.07;;;11.47;;
31754;SDS011;18325;52.018;4.726;2023-03-01T06:11:55;21.30;;;9.93;;
31754;SDS011;18325;52.018;4.726;2023-03-01T06:14:21;15.53;;;8.93;;
31754;SDS011;18325;52.018;4.726;2023-03-01T06:17:13;18.53;;;8.83;;
31754;SDS011;18325;52.018;4.726;2023-03-01T06:19:43;18.33;;;10.03;;
31754;SDS011;18325;52.018;4.726;2023-03-01T06:22:09;18.83;;;9.17;;
31754;SDS011;18325;52.018;4.726;2023-03-01T06:24:36;14.63;;;7.77;;
31754;SDS011;18325;52.018;4.726;2023-03-01T06:27:04;10.00;;;6.00;;
31754;SDS011;18325;52.018;4.726;2023-03-01T06:29:30;15.73;;;6.33;;
31754;SDS011;18325;52.018;4.726;2023-03-01T06:31:57;11.83;;;6.27;;
31754;SDS011;18325;52.018;4.726;2023-03-01T06:34:23;10.87;;;6.30;;
31754;SDS011;18325;52.018;4.726;2023-03-01T06:36:50;18.67;;;7.70;;
31754;SDS011;18325;52.018;4.726;2023-03-01T06:39:16;13.73;;;6.60;;
31754;SDS011;18325;52.018;4.726;2023-03-01T06:41:43;12.13;;;6.93;;
31754;SDS011;18325;52.018;4.726;2023-03-01T06:44:11;10.47;;;6.07;;
31754;SDS011;18325;52.018;4.726;2023-03-01T06:46:38;10.47;;;6.37;;
31754;SDS011;18325;52.018;4.726;2023-03-01T06:49:05;10.43;;;5.87;;
31754;SDS011;18325;52.018;4.726;2023-03-01T06:51:34;10.00;;;6.00;;
31754;SDS011;18325;52.018;4.726;2023-03-01T06:54:01;13.30;;;6.93;;
31754;SDS011;18325;52.018;4.726;2023-03-01T06:56:27;10.50;;;6.57;;
31754;SDS011;18325;52.018;4.726;2023-03-01T06:58:54;13.87;;;6.70;;
31754;SDS011;18325;52.018;4.726;2023-03-01T07:01:21;9.60;;;5.57;;
31754;SDS011;18325;52.018;4.726;2023-03-01T07:03:48;11.27;;;6.57;;
31754;SDS011;18325;52.018;4.726;2023-03-01T07:06:14;15.07;;;7.00;;
31754;SDS011;18325;52.018;4.726;2023-03-01T07:08:42;66.80;;;28.57;;
31754;SDS011;18325;52.018;4.726;2023-03-01T07:11:09;33.00;;;13.90;;
31754;SDS011;18325;52.018;4.726;2023-03-01T07:13:35;17.87;;;10.53;;
31754;SDS011;18325;52.018;4.726;2023-03-01T07:16:04;16.87;;;8.27;;
31754;SDS011;18325;52.018;4.726;2023-03-01T07:18:40;13.33;;;6.97;;
31754;SDS011;18325;52.018;4.726;2023-03-01T07:24:35;14.77;;;6.37;;
31754;SDS011;18325;52.018;4.726;2023-03-01T07:27:05;10.50;;;6.63;;
31754;SDS011;18325;52.018;4.726;2023-03-01T07:29:34;9.03;;;5.27;;
31754;SDS011;18325;52.018;4.726;2023-03-01T07:32:01;11.70;;;6.13;;
31754;SDS011;18325;52.018;4.726;2023-03-01T07:34:29;11.77;;;6.43;;
31754;SDS011;18325;52.018;4.726;2023-03-01T07:36:57;11.03;;;5.50;;
31754;SDS011;18325;52.018;4.726;2023-03-01T07:39:27;12.20;;;7.07;;
31754;SDS011;18325;52.018;4.726;2023-03-01T07:41:54;10.03;;;6.27;;
31754;SDS011;18325;52.018;4.726;2023-03-01T07:44:21;7.80;;;5.17;;
31754;SDS011;18325;52.018;4.726;2023-03-01T07:46:51;10.60;;;6.13;;
31754;SDS011;18325;52.018;4.726;2023-03-01T07:49:32;8.30;;;4.93;;
31754;SDS011;18325;52.018;4.726;2023-03-01T07:51:59;9.43;;;5.73;;
31754;SDS011;18325;52.018;4.726;2023-03-01T07:54:25;16.17;;;7.17;;
31754;SDS011;18325;52.018;4.726;2023-03-01T07:56:52;10.27;;;6.43;;
31754;SDS011;18325;52.018;4.726;2023-03-01T07:59:19;9.93;;;5.73;;
31754;SDS011;18325;52.018;4.726;2023-03-01T08:04:58;8.83;;;5.17;;
31754;SDS011;18325;52.018;4.726;2023-03-01T08:07:25;11.33;;;6.27;;
31754;SDS011;18325;52.018;4.726;2023-03-01T08:09:51;8.63;;;5.77;;
31754;SDS011;18325;52.018;4.726;2023-03-01T08:12:18;8.90;;;5.40;;
31754;SDS011;18325;52.018;4.726;2023-03-01T08:14:45;10.27;;;5.63;;
31754;SDS011;18325;52.018;4.726;2023-03-01T08:17:15;13.40;;;6.63;;
31754;SDS011;18325;52.018;4.726;2023-03-01T08:19:42;8.60;;;5.13;;
31754;SDS011;18325;52.018;4.726;2023-03-01T08:22:10;15.37;;;5.67;;
31754;SDS011;18325;52.018;4.726;2023-03-01T08:27:34;10.30;;;5.43;;
31754;SDS011;18325;52.018;4.726;2023-03-01T08:30:01;18.40;;;5.37;;
31754;SDS011;18325;52.018;4.726;2023-03-01T08:32:32;10.33;;;5.40;;
31754;SDS011;18325;52.018;4.726;2023-03-01T08:35:02;14.90;;;5.13;;
31754;SDS011;18325;52.018;4.726;2023-03-01T08:41:03;9.10;;;4.90;;
31754;SDS011;18325;52.018;4.726;2023-03-01T08:43:29;11.13;;;5.73;;
31754;SDS011;18325;52.018;4.726;2023-03-01T08:46:14;11.90;;;6.20;;
31754;SDS011;18325;52.018;4.726;2023-03-01T08:48:58;9.00;;;5.40;;
31754;SDS011;18325;52.018;4.726;2023-03-01T08:51:25;9.57;;;4.83;;
31754;SDS011;18325;52.018;4.726;2023-03-01T08:53:53;11.63;;;5.80;;
31754;SDS011;18325;52.018;4.726;2023-03-01T08:56:20;10.03;;;5.53;;
31754;SDS011;18325;52.018;4.726;2023-03-01T08:58:47;7.27;;;3.90;;
31754;SDS011;18325;52.018;4.726;2023-03-01T09:01:15;5.73;;;3.33;;
31754;SDS011;18325;52.018;4.726;2023-03-01T09:03:42;10.27;;;5.27;;
31754;SDS011;18325;52.018;4.726;2023-03-01T09:06:09;8.53;;;4.33;;
31754;SDS011;18325;52.018;4.726;2023-03-01T09:08:43;10.40;;;5.23;;
31754;SDS011;18325;52.018;4.726;2023-03-01T09:11:13;10.93;;;5.90;;
31754;SDS011;18325;52.018;4.726;2023-03-01T09:13:41;9.67;;;5.17;;
31754;SDS011;18325;52.018;4.726;2023-03-01T09:16:08;8.70;;;4.80;;
31754;SDS011;18325;52.018;4.726;2023-03-01T09:18:35;10.13;;;4.87;;
31754;SDS011;18325;52.018;4.726;2023-03-01T09:21:02;9.47;;;3.90;;
31754;SDS011;18325;52.018;4.726;2023-03-01T09:23:32;6.13;;;4.07;;
31754;SDS011;18325;52.018;4.726;2023-03-01T09:26:07;13.73;;;3.60;;
31754;SDS011;18325;52.018;4.726;2023-03-01T09:28:38;6.17;;;3.97;;
31754;SDS011;18325;52.018;4.726;2023-03-01T09:31:07;8.13;;;3.87;;
31754;SDS011;18325;52.018;4.726;2023-03-01T09:33:34;7.53;;;3.77;;
31754;SDS011;18325;52.018;4.726;2023-03-01T09:36:01;6.43;;;3.70;;
31754;SDS011;18325;52.018;4.726;2023-03-01T09:38:29;6.27;;;3.53;;
31754;SDS011;18325;52.018;4.726;2023-03-01T09:40:56;5.90;;;3.50;;
31754;SDS011;18325;52.018;4.726;2023-03-01T09:43:23;5.97;;;3.73;;
31754;SDS011;18325;52.018;4.726;2023-03-01T09:45:54;6.57;;;3.70;;
31754;SDS011;18325;52.018;4.726;2023-03-01T09:48:24;5.67;;;3.37;;
31754;SDS011;18325;52.018;4.726;2023-03-01T09:50:53;4.93;;;3.47;;
31754;SDS011;18325;52.018;4.726;2023-03-01T09:53:23;5.57;;;3.50;;
31754;SDS011;18325;52.018;4.726;2023-03-01T09:56:01;4.57;;;3.03;;
31754;SDS011;18325;52.018;4.726;2023-03-01T09:58:35;6.50;;;3.47;;
31754;SDS011;18325;52.018;4.726;2023-03-01T10:01:14;10.13;;;4.73;;
31754;SDS011;18325;52.018;4.726;2023-03-01T10:03:53;5.43;;;3.17;;
31754;SDS011;18325;52.018;4.726;2023-03-01T10:06:33;6.30;;;3.97;;
31754;SDS011;18325;52.018;4.726;2023-03-01T10:09:00;6.53;;;4.10;;
31754;SDS011;18325;52.018;4.726;2023-03-01T10:11:30;8.07;;;4.30;;
31754;SDS011;18325;52.018;4.726;2023-03-01T10:13:59;10.90;;;4.60;;
31754;SDS011;18325;52.018;4.726;2023-03-01T10:16:32;8.10;;;4.13;;
31754;SDS011;18325;52.018;4.726;2023-03-01T10:19:03;5.70;;;3.30;;
31754;SDS011;18325;52.018;4.726;2023-03-01T10:21:39;8.73;;;4.07;;
31754;SDS011;18325;52.018;4.726;2023-03-01T10:24:11;7.33;;;3.93;;
31754;SDS011;18325;52.018;4.726;2023-03-01T10:26:43;6.47;;;4.17;;
31754;SDS011;18325;52.018;4.726;2023-03-01T10:29:13;6.40;;;4.43;;
31754;SDS011;18325;52.018;4.726;2023-03-01T10:31:42;5.97;;;3.83;;
31754;SDS011;18325;52.018;4.726;2023-03-01T10:34:13;6.77;;;3.80;;
31754;SDS011;18325;52.018;4.726;2023-03-01T10:36:41;8.07;;;3.53;;
31754;SDS011;18325;52.018;4.726;2023-03-01T10:39:12;5.07;;;3.53;;
31754;SDS011;18325;52.018;4.726;2023-03-01T10:41:49;7.33;;;3.67;;
31754;SDS011;18325;52.018;4.726;2023-03-01T10:47:16;4.80;;;3.33;;
31754;SDS011;18325;52.018;4.726;2023-03-01T10:49:53;6.83;;;3.80;;
31754;SDS011;18325;52.018;4.726;2023-03-01T10:52:25;8.20;;;3.80;;
31754;SDS011;18325;52.018;4.726;2023-03-01T10:54:55;6.17;;;3.43;;
31754;SDS011;18325;52.018;4.726;2023-03-01T10:57:27;5.30;;;3.70;;
31754;SDS011;18325;52.018;4.726;2023-03-01T11:00:16;10.60;;;4.97;;
31754;SDS011;18325;52.018;4.726;2023-03-01T11:02:49;4.63;;;3.43;;
31754;SDS011;18325;52.018;4.726;2023-03-01T11:05:21;6.47;;;3.30;;
31754;SDS011;18325;52.018;4.726;2023-03-01T11:07:50;10.77;;;4.43;;
31754;SDS011;18325;52.018;4.726;2023-03-01T11:10:20;5.43;;;3.40;;
31754;SDS011;18325;52.018;4.726;2023-03-01T11:12:48;7.63;;;4.40;;
31754;SDS011;18325;52.018;4.726;2023-03-01T11:15:25;5.73;;;3.57;;
31754;SDS011;18325;52.018;4.726;2023-03-01T11:20:46;4.67;;;3.03;;
31754;SDS011;18325;52.018;4.726;2023-03-01T11:23:14;5.80;;;3.33;;
31754;SDS011;18325;52.018;4.726;2023-03-01T11:25:41;6.97;;;3.17;;
31754;SDS011;18325;52.018;4.726;2023-03-01T11:28:10;4.23;;;3.20;;
31754;SDS011;18325;52.018;4.726;2023-03-01T11:30:41;5.70;;;3.27;;
31754;SDS011;18325;52.018;4.726;2023-03-01T11:33:13;5.33;;;3.27;;
31754;SDS011;18325;52.018;4.726;2023-03-01T11:35:47;9.47;;;2.67;;
31754;SDS011;18325;52.018;4.726;2023-03-01T11:38:17;3.27;;;2.50;;
31754;SDS011;18325;52.018;4.726;2023-03-01T11:40:48;5.47;;;3.10;;
31754;SDS011;18325;52.018;4.726;2023-03-01T11:43:19;3.03;;;2.27;;
31754;SDS011;18325;52.018;4.726;2023-03-01T11:45:55;6.40;;;2.90;;
31754;SDS011;18325;52.018;4.726;2023-03-01T11:48:36;6.63;;;2.73;;
31754;SDS011;18325;52.018;4.726;2023-03-01T11:51:13;4.33;;;2.87;;
31754;SDS011;18325;52.018;4.726;2023-03-01T11:53:50;5.87;;;2.50;;
31754;SDS011;18325;52.018;4.726;2023-03-01T11:56:24;4.43;;;2.20;;
31754;SDS011;18325;52.018;4.726;2023-03-01T11:59:03;5.03;;;2.40;;
31754;SDS011;18325;52.018;4.726;2023-03-01T12:01:39;4.83;;;2.63;;
31754;SDS011;18325;52.018;4.726;2023-03-01T12:07:15;4.33;;;2.67;;
31754;SDS011;18325;52.018;4.726;2023-03-01T12:09:59;6.17;;;3.10;;
31754;SDS011;18325;52.018;4.726;2023-03-01T12:12:42;3.90;;;2.50;;
31754;SDS011;18325;52.018;4.726;2023-03-01T12:21:28;4.57;;;2.87;;
31754;SDS011;18325;52.018;4.726;2023-03-01T12:24:05;7.37;;;3.30;;
31754;SDS011;18325;52.018;4.726;2023-03-01T12:26:38;3.60;;;2.40;;
31754;SDS011;18325;52.018;4.726;2023-03-01T12:29:22;6.10;;;3.27;;
31754;SDS011;18325;52.018;4.726;2023-03-01T12:31:58;7.60;;;3.00;;
31754;SDS011;18325;52.018;4.726;2023-03-01T12:34:42;5.80;;;2.90;;
31754;SDS011;18325;52.018;4.726;2023-03-01T12:37:21;6.37;;;2.73;;
31754;SDS011;18325;52.018;4.726;2023-03-01T12:42:54;4.03;;;2.47;;
31754;SDS011;18325;52.018;4.726;2023-03-01T12:45:34;5.90;;;3.23;;
31754;SDS011;18325;52.018;4.726;2023-03-01T12:48:10;5.23;;;2.97;;
31754;SDS011;18325;52.018;4.726;2023-03-01T12:50:47;4.93;;;2.67;;
31754;SDS011;18325;52.018;4.726;2023-03-01T12:53:20;4.50;;;3.43;;
31754;SDS011;18325;52.018;4.726;2023-03-01T12:55:49;3.33;;;2.70;;
31754;SDS011;18325;52.018;4.726;2023-03-01T12:58:20;5.13;;;2.70;;
31754;SDS011;18325;52.018;4.726;2023-03-01T13:00:53;4.67;;;2.73;;
31754;SDS011;18325;52.018;4.726;2023-03-01T13:03:31;4.17;;;2.87;;
31754;SDS011;18325;52.018;4.726;2023-03-01T13:06:07;5.93;;;2.63;;
31754;SDS011;18325;52.018;4.726;2023-03-01T13:08:36;5.07;;;2.80;;
31754;SDS011;18325;52.018;4.726;2023-03-01T13:11:11;4.00;;;2.80;;
31754;SDS011;18325;52.018;4.726;2023-03-01T13:13:43;5.13;;;2.60;;
31754;SDS011;18325;52.018;4.726;2023-03-01T13:16:20;3.73;;;2.37;;
31754;SDS011;18325;52.018;4.726;2023-03-01T13:18:48;4.80;;;2.63;;
31754;SDS011;18325;52.018;4.726;2023-03-01T13:21:15;4.57;;;2.77;;
31754;SDS011;18325;52.018;4.726;2023-03-01T13:23:55;5.30;;;2.80;;
31754;SDS011;18325;52.018;4.726;2023-03-01T13:26:21;5.50;;;3.07;;
31754;SDS011;18325;52.018;4.726;2023-03-01T13:28:50;5.83;;;3.50;;
31754;SDS011;18325;52.018;4.726;2023-03-01T13:37:10;4.87;;;2.93;;
31754;SDS011;18325;52.018;4.726;2023-03-01T13:39:45;7.87;;;3.03;;
31754;SDS011;18325;52.018;4.726;2023-03-01T13:45:05;6.97;;;3.27;;
31754;SDS011;18325;52.018;4.726;2023-03-01T13:47:42;4.00;;;2.50;;
31754;SDS011;18325;52.018;4.726;2023-03-01T13:50:16;6.07;;;2.90;;
31754;SDS011;18325;52.018;4.726;2023-03-01T13:52:45;7.30;;;2.57;;
31754;SDS011;18325;52.018;4.726;2023-03-01T13:55:16;3.80;;;2.97;;
31754;SDS011;18325;52.018;4.726;2023-03-01T13:57:46;7.20;;;3.07;;
31754;SDS011;18325;52.018;4.726;2023-03-01T14:00:36;5.60;;;2.53;;
31754;SDS011;18325;52.018;4.726;2023-03-01T14:03:05;5.87;;;2.83;;
31754;SDS011;18325;52.018;4.726;2023-03-01T14:05:35;4.97;;;2.90;;
31754;SDS011;18325;52.018;4.726;2023-03-01T14:08:02;4.77;;;2.63;;
31754;SDS011;18325;52.018;4.726;2023-03-01T14:10:31;4.20;;;2.50;;
31754;SDS011;18325;52.018;4.726;2023-03-01T14:13:02;4.57;;;2.50;;
31754;SDS011;18325;52.018;4.726;2023-03-01T14:18:27;4.97;;;2.07;;
31754;SDS011;18325;52.018;4.726;2023-03-01T14:20:57;4.43;;;2.30;;
31754;SDS011;18325;52.018;4.726;2023-03-01T14:23:24;4.13;;;2.47;;
31754;SDS011;18325;52.018;4.726;2023-03-01T14:25:52;6.97;;;3.87;;
31754;SDS011;18325;52.018;4.726;2023-03-01T14:28:20;6.90;;;2.60;;
31754;SDS011;18325;52.018;4.726;2023-03-01T14:30:55;7.57;;;2.60;;
31754;SDS011;18325;52.018;4.726;2023-03-01T14:33:37;6.67;;;3.03;;
31754;SDS011;18325;52.018;4.726;2023-03-01T14:36:06;5.33;;;2.80;;
31754;SDS011;18325;52.018;4.726;2023-03-01T14:38:35;5.67;;;2.53;;
31754;SDS011;18325;52.018;4.726;2023-03-01T14:41:03;4.63;;;2.63;;
31754;SDS011;18325;52.018;4.726;2023-03-01T14:43:31;6.20;;;3.03;;
31754;SDS011;18325;52.018;4.726;2023-03-01T14:45:58;6.97;;;2.20;;
31754;SDS011;18325;52.018;4.726;2023-03-01T14:48:26;4.23;;;2.63;;
31754;SDS011;18325;52.018;4.726;2023-03-01T14:50:54;5.90;;;3.20;;
31754;SDS011;18325;52.018;4.726;2023-03-01T14:53:21;3.43;;;2.23;;
31754;SDS011;18325;52.018;4.726;2023-03-01T14:55:50;5.63;;;2.63;;
31754;SDS011;18325;52.018;4.726;2023-03-01T14:58:28;6.67;;;2.60;;
31754;SDS011;18325;52.018;4.726;2023-03-01T15:00:59;5.43;;;2.37;;
31754;SDS011;18325;52.018;4.726;2023-03-01T15:03:30;6.27;;;2.57;;
31754;SDS011;18325;52.018;4.726;2023-03-01T15:05:57;8.17;;;3.00;;
31754;SDS011;18325;52.018;4.726;2023-03-01T15:08:25;2.60;;;2.27;;
31754;SDS011;18325;52.018;4.726;2023-03-01T15:10:59;4.77;;;2.63;;
31754;SDS011;18325;52.018;4.726;2023-03-01T15:13:49;4.43;;;2.07;;
31754;SDS011;18325;52.018;4.726;2023-03-01T15:16:16;7.40;;;2.60;;
31754;SDS011;18325;52.018;4.726;2023-03-01T15:18:46;4.40;;;2.17;;
31754;SDS011;18325;52.018;4.726;2023-03-01T15:21:18;3.73;;;2.60;;
31754;SDS011;18325;52.018;4.726;2023-03-01T15:23:49;3.40;;;2.10;;
31754;SDS011;18325;52.018;4.726;2023-03-01T15:26:21;5.23;;;2.30;;
31754;SDS011;18325;52.018;4.726;2023-03-01T15:28:49;4.47;;;2.20;;
31754;SDS011;18325;52.018;4.726;2023-03-01T15:31:18;4.00;;;2.13;;
31754;SDS011;18325;52.018;4.726;2023-03-01T15:33:48;3.93;;;2.30;;
31754;SDS011;18325;52.018;4.726;2023-03-01T15:36:31;7.17;;;2.90;;
31754;SDS011;18325;52.018;4.726;2023-03-01T15:38:59;5.50;;;2.73;;